createdAt,value
2022-10-28T00:00:20.772Z,984.76
2022-10-28T00:01:20.847Z,984.78
2022-10-28T00:02:20.786Z,984.79
2022-10-28T00:03:20.729Z,984.74
2022-10-28T00:04:20.758Z,984.84
2022-10-28T00:05:20.705Z,984.84
2022-10-28T00:06:20.697Z,984.79
2022-10-28T00:07:20.683Z,984.70
2022-10-28T00:08:20.671Z,984.70
2022-10-28T00:09:20.657Z,984.72
2022-10-28T00:10:20.639Z,984.73
2022-10-28T00:11:20.741Z,984.70
2022-10-28T00:12:20.614Z,984.72
2022-10-28T00:13:20.593Z,984.75
2022-10-28T00:14:20.588Z,984.73
2022-10-28T00:15:20.570Z,984.78
2022-10-28T00:16:20.561Z,984.79
2022-10-28T00:17:20.638Z,984.75
2022-10-28T00:18:20.540Z,984.70
2022-10-28T00:19:20.521Z,984.77
2022-10-28T00:20:20.503Z,984.70
2022-10-28T00:21:20.487Z,984.71
2022-10-28T00:22:20.480Z,984.73
2022-10-28T00:23:20.465Z,984.69
2022-10-28T00:24:20.458Z,984.71
2022-10-28T00:25:20.438Z,984.70
2022-10-28T00:26:20.431Z,984.69
2022-10-28T00:27:20.432Z,984.62
2022-10-28T00:28:20.403Z,984.64
2022-10-28T00:29:20.386Z,984.72
2022-10-28T00:30:20.466Z,984.74
2022-10-28T00:31:20.358Z,984.67
2022-10-28T00:32:20.353Z,984.69
2022-10-28T00:33:20.330Z,984.66
2022-10-28T00:34:20.324Z,984.65
2022-10-28T00:35:20.306Z,984.71
2022-10-28T00:36:20.291Z,984.68
2022-10-28T00:37:20.276Z,984.71
2022-10-28T00:38:20.271Z,984.73
2022-10-28T00:39:20.246Z,984.71
2022-10-28T00:40:20.239Z,984.79
2022-10-28T00:41:20.222Z,984.75
2022-10-28T00:42:20.213Z,984.80
2022-10-28T00:43:20.387Z,984.71
2022-10-28T00:44:20.192Z,984.73
2022-10-28T00:45:20.164Z,984.70
2022-10-28T00:46:20.155Z,984.67
2022-10-28T00:47:20.136Z,984.62
2022-10-28T00:48:20.124Z,984.60
2022-10-28T00:49:20.110Z,984.66
2022-10-28T00:50:20.113Z,984.63
2022-10-28T00:51:20.089Z,984.58
2022-10-28T00:52:20.084Z,984.62
2022-10-28T00:53:20.061Z,984.66
2022-10-28T00:54:20.049Z,984.65
2022-10-28T00:55:20.038Z,984.69
2022-10-28T00:56:20.126Z,984.67
2022-10-28T00:57:20.010Z,984.66
2022-10-28T00:58:19.991Z,984.64
2022-10-28T00:59:19.999Z,984.75
2022-10-28T01:00:19.970Z,984.68
2022-10-28T01:01:20.091Z,984.72
2022-10-28T01:02:20.066Z,984.72
2022-10-28T01:03:19.926Z,984.73
2022-10-28T01:04:19.923Z,984.74
2022-10-28T01:05:19.908Z,984.74
2022-10-28T01:06:19.889Z,984.70
2022-10-28T01:07:19.878Z,984.69
2022-10-28T01:08:19.863Z,984.70
2022-10-28T01:09:19.911Z,984.70
2022-10-28T01:10:19.835Z,984.71
2022-10-28T01:11:19.821Z,984.60
2022-10-28T01:12:19.812Z,984.65
2022-10-28T01:13:19.798Z,984.61
2022-10-28T01:14:19.791Z,984.57
2022-10-28T01:15:19.801Z,984.54
2022-10-28T01:16:19.759Z,984.51
2022-10-28T01:17:19.742Z,984.52
2022-10-28T01:18:19.727Z,984.55
2022-10-28T01:19:19.709Z,984.56
2022-10-28T01:20:19.697Z,984.62
2022-10-28T01:21:19.683Z,984.57
2022-10-28T01:22:19.729Z,984.60
2022-10-28T01:23:19.658Z,984.60
2022-10-28T01:24:19.650Z,984.66
2022-10-28T01:25:19.651Z,984.59
2022-10-28T01:26:19.617Z,984.66
2022-10-28T01:27:19.609Z,984.70
2022-10-28T01:28:19.600Z,984.69
2022-10-28T01:29:19.576Z,984.64
2022-10-28T01:30:19.564Z,984.62
2022-10-28T01:31:19.569Z,984.60
2022-10-28T01:32:19.540Z,984.65
2022-10-28T01:33:19.523Z,984.60
2022-10-28T01:34:19.516Z,984.57
2022-10-28T01:35:19.578Z,984.57
2022-10-28T01:36:19.487Z,984.62
2022-10-28T01:37:19.477Z,984.60
2022-10-28T01:38:19.464Z,984.57
2022-10-28T01:39:19.452Z,984.55
2022-10-28T01:40:19.438Z,984.56
2022-10-28T01:41:19.425Z,984.56
2022-10-28T01:42:19.401Z,984.52
2022-10-28T01:43:19.395Z,984.52
2022-10-28T01:44:19.379Z,984.55
2022-10-28T01:45:19.364Z,984.53
2022-10-28T01:46:19.352Z,984.50
2022-10-28T01:47:19.360Z,984.52
2022-10-28T01:48:19.320Z,984.48
2022-10-28T01:49:19.311Z,984.52
2022-10-28T01:50:19.298Z,984.58
2022-10-28T01:51:19.291Z,984.57
2022-10-28T01:52:19.275Z,984.53
2022-10-28T01:53:19.265Z,984.50
2022-10-28T01:54:19.248Z,984.51
2022-10-28T01:55:19.233Z,984.49
2022-10-28T01:56:19.214Z,984.52
2022-10-28T01:57:19.201Z,984.41
2022-10-28T01:58:19.195Z,984.50
2022-10-28T01:59:19.180Z,984.49
2022-10-28T02:00:19.165Z,984.43
2022-10-28T02:01:19.305Z,984.41
2022-10-28T02:02:19.144Z,984.45
2022-10-28T02:03:19.151Z,984.49
2022-10-28T02:04:19.113Z,984.52
2022-10-28T02:05:19.104Z,984.49
2022-10-28T02:06:19.081Z,984.46
2022-10-28T02:07:19.069Z,984.47
2022-10-28T02:08:19.057Z,984.45
2022-10-28T02:09:19.044Z,984.45
2022-10-28T02:10:19.029Z,984.45
2022-10-28T02:11:19.019Z,984.47
2022-10-28T02:12:19.006Z,984.46
2022-10-28T02:13:18.996Z,984.38
2022-10-28T02:14:18.979Z,984.38
2022-10-28T02:15:18.973Z,984.40
2022-10-28T02:16:18.953Z,984.41
2022-10-28T02:17:18.943Z,984.44
2022-10-28T02:18:18.927Z,984.43
2022-10-28T02:19:18.929Z,984.43
2022-10-28T02:20:18.894Z,984.39
2022-10-28T02:21:18.881Z,984.38
2022-10-28T02:22:18.869Z,984.34
2022-10-28T02:23:18.862Z,984.34
2022-10-28T02:24:18.842Z,984.37
2022-10-28T02:25:18.831Z,984.33
2022-10-28T02:26:18.815Z,984.37
2022-10-28T02:27:18.807Z,984.30
2022-10-28T02:28:18.790Z,984.35
2022-10-28T02:29:18.778Z,984.35
2022-10-28T02:30:18.760Z,984.30
2022-10-28T02:31:18.744Z,984.30
2022-10-28T02:32:18.737Z,984.29
2022-10-28T02:33:18.717Z,984.27
2022-10-28T02:34:18.710Z,984.27
2022-10-28T02:35:18.717Z,984.30
2022-10-28T02:36:18.683Z,984.30
2022-10-28T02:37:18.673Z,984.28
2022-10-28T02:38:18.654Z,984.32
2022-10-28T02:39:18.634Z,984.26
2022-10-28T02:40:18.623Z,984.23
2022-10-28T02:41:18.710Z,984.23
2022-10-28T02:42:18.604Z,984.15
2022-10-28T02:43:18.586Z,984.18
2022-10-28T02:44:18.582Z,984.17
2022-10-28T02:45:18.567Z,984.20
2022-10-28T02:46:18.547Z,984.22
2022-10-28T02:47:18.528Z,984.21
2022-10-28T02:48:18.518Z,984.18
2022-10-28T02:49:18.501Z,984.20
2022-10-28T02:50:18.496Z,984.25
2022-10-28T02:51:18.499Z,984.31
2022-10-28T02:52:18.467Z,984.22
2022-10-28T02:53:18.513Z,984.31
2022-10-28T02:54:18.437Z,984.32
2022-10-28T02:55:18.421Z,984.30
2022-10-28T02:56:18.410Z,984.28
2022-10-28T02:57:18.391Z,984.29
2022-10-28T02:58:18.387Z,984.36
2022-10-28T02:59:18.373Z,984.34
2022-10-28T03:00:18.361Z,984.37
2022-10-28T03:01:18.479Z,984.30
2022-10-28T03:02:18.439Z,984.41
2022-10-28T03:03:18.312Z,984.39
2022-10-28T03:04:18.298Z,984.36
2022-10-28T03:05:18.288Z,984.42
2022-10-28T03:06:18.311Z,984.35
2022-10-28T03:07:18.286Z,984.38
2022-10-28T03:08:18.247Z,984.32
2022-10-28T03:09:18.236Z,984.33
2022-10-28T03:10:18.227Z,984.37
2022-10-28T03:11:18.207Z,984.28
2022-10-28T03:12:18.197Z,984.31
2022-10-28T03:13:18.181Z,984.30
2022-10-28T03:14:18.171Z,984.33
2022-10-28T03:15:18.150Z,984.32
2022-10-28T03:16:18.144Z,984.29
2022-10-28T03:17:18.124Z,984.36
2022-10-28T03:18:18.115Z,984.29
2022-10-28T03:19:18.100Z,984.21
2022-10-28T03:20:18.083Z,984.28
2022-10-28T03:21:18.070Z,984.30
2022-10-28T03:22:18.061Z,984.30
2022-10-28T03:23:18.065Z,984.28
2022-10-28T03:24:18.043Z,984.27
2022-10-28T03:25:18.023Z,984.31
2022-10-28T03:26:18.010Z,984.31
2022-10-28T03:27:17.995Z,984.27
2022-10-28T03:28:17.981Z,984.25
2022-10-28T03:29:17.964Z,984.25
2022-10-28T03:30:17.950Z,984.32
2022-10-28T03:31:17.937Z,984.31
2022-10-28T03:32:17.971Z,984.26
2022-10-28T03:33:17.912Z,984.28
2022-10-28T03:34:17.903Z,984.28
2022-10-28T03:35:17.887Z,984.31
2022-10-28T03:36:17.877Z,984.30
2022-10-28T03:37:17.857Z,984.27
2022-10-28T03:38:17.847Z,984.26
2022-10-28T03:39:17.846Z,984.35
2022-10-28T03:40:17.819Z,984.36
2022-10-28T03:41:17.803Z,984.31
2022-10-28T03:42:17.798Z,984.27
2022-10-28T03:43:17.804Z,984.18
2022-10-28T03:44:17.775Z,984.15
2022-10-28T03:45:17.811Z,984.12
2022-10-28T03:46:17.740Z,984.12
2022-10-28T03:47:17.718Z,984.10
2022-10-28T03:48:17.716Z,984.08
2022-10-28T03:49:17.692Z,984.07
2022-10-28T03:50:17.681Z,984.16
2022-10-28T03:51:17.666Z,984.16
2022-10-28T03:52:17.656Z,984.12
2022-10-28T03:53:17.643Z,984.08
2022-10-28T03:54:17.639Z,984.12
2022-10-28T03:55:17.711Z,984.02
2022-10-28T03:56:17.609Z,984.08
2022-10-28T03:57:17.591Z,984.12
2022-10-28T03:58:17.584Z,984.05
2022-10-28T03:59:20.126Z,984.07
2022-10-28T04:00:17.559Z,983.99
2022-10-28T04:01:17.636Z,984.03
2022-10-28T04:02:17.640Z,984.05
2022-10-28T04:03:17.507Z,984.11
2022-10-28T04:04:17.498Z,984.07
2022-10-28T04:05:17.476Z,984.10
2022-10-28T04:06:17.520Z,984.08
2022-10-28T04:07:17.452Z,984.04
2022-10-28T04:08:17.442Z,984.07
2022-10-28T04:09:17.431Z,984.01
2022-10-28T04:10:17.428Z,984.03
2022-10-28T04:11:17.422Z,983.99
2022-10-28T04:12:17.417Z,983.94
2022-10-28T04:13:17.379Z,984.00
2022-10-28T04:14:17.366Z,984.00
2022-10-28T04:15:17.345Z,984.01
2022-10-28T04:16:17.335Z,983.99
2022-10-28T04:17:17.316Z,984.04
2022-10-28T04:18:17.314Z,984.06
2022-10-28T04:19:17.301Z,984.02
2022-10-28T04:20:17.289Z,984.01
2022-10-28T04:21:17.272Z,984.04
2022-10-28T04:22:17.261Z,984.05
2022-10-28T04:23:17.247Z,984.01
2022-10-28T04:24:17.237Z,984.03
2022-10-28T04:25:17.220Z,984.01
2022-10-28T04:26:17.207Z,984.03
2022-10-28T04:27:17.211Z,984.02
2022-10-28T04:28:17.172Z,984.10
2022-10-28T04:29:17.168Z,983.98
2022-10-28T04:30:17.149Z,983.96
2022-10-28T04:31:17.131Z,983.97
2022-10-28T04:32:17.122Z,983.99
2022-10-28T04:33:17.105Z,983.98
2022-10-28T04:34:17.097Z,983.95
2022-10-28T04:35:17.083Z,984.02
2022-10-28T04:36:17.070Z,984.01
2022-10-28T04:37:20.350Z,983.96
2022-10-28T04:38:17.089Z,984.02
2022-10-28T04:39:17.026Z,984.05
2022-10-28T04:40:17.021Z,984.01
2022-10-28T04:41:17.001Z,983.96
2022-10-28T04:42:16.988Z,983.99
2022-10-28T04:43:16.992Z,983.94
2022-10-28T04:44:16.962Z,983.89
2022-10-28T04:45:16.943Z,983.89
2022-10-28T04:46:16.939Z,983.85
2022-10-28T04:47:16.920Z,983.84
2022-10-28T04:48:16.909Z,983.77
2022-10-28T04:49:16.946Z,983.75
2022-10-28T04:50:16.883Z,983.76
2022-10-28T04:51:16.863Z,983.79
2022-10-28T04:52:16.855Z,983.82
2022-10-28T04:53:16.838Z,983.87
2022-10-28T04:54:16.824Z,983.85
2022-10-28T04:55:16.811Z,983.88
2022-10-28T04:56:16.799Z,983.88
2022-10-28T04:57:16.784Z,983.89
2022-10-28T04:58:16.777Z,983.82
2022-10-28T04:59:16.782Z,983.92
2022-10-28T05:00:16.750Z,983.93
2022-10-28T05:01:16.835Z,983.93
2022-10-28T05:02:16.829Z,983.94
2022-10-28T05:03:16.713Z,984.02
2022-10-28T05:04:16.696Z,984.01
2022-10-28T05:06:16.669Z,984.05
2022-10-28T05:07:18.678Z,984.06
2022-10-28T05:08:16.638Z,984.06
2022-10-28T05:09:16.633Z,984.07
2022-10-28T05:10:16.666Z,984.05
2022-10-28T05:11:16.601Z,984.01
2022-10-28T05:12:16.606Z,983.99
2022-10-28T05:13:16.626Z,983.98
2022-10-28T05:14:16.561Z,983.92
2022-10-28T05:15:16.563Z,983.96
2022-10-28T05:16:16.536Z,984.00
2022-10-28T05:17:16.516Z,984.07
2022-10-28T05:18:16.508Z,983.94
2022-10-28T05:19:16.490Z,983.93
2022-10-28T05:20:16.479Z,983.89
2022-10-28T05:21:16.461Z,983.88
2022-10-28T05:22:16.458Z,983.85
2022-10-28T05:23:16.442Z,983.88
2022-10-28T05:24:16.429Z,983.84
2022-10-28T05:25:16.412Z,983.84
2022-10-28T05:26:16.403Z,983.80
2022-10-28T05:27:16.390Z,983.79
2022-10-28T05:28:16.376Z,983.79
2022-10-28T05:29:16.360Z,983.76
2022-10-28T05:30:16.346Z,983.74
2022-10-28T05:31:16.400Z,983.81
2022-10-28T05:32:16.318Z,983.77
2022-10-28T05:33:16.306Z,983.82
2022-10-28T05:34:16.291Z,983.85
2022-10-28T05:35:16.278Z,983.83
2022-10-28T05:36:16.262Z,983.84
2022-10-28T05:37:16.247Z,983.90
2022-10-28T05:38:16.246Z,983.88
2022-10-28T05:39:16.226Z,983.81
2022-10-28T05:40:16.212Z,983.89
2022-10-28T05:41:16.199Z,983.82
2022-10-28T05:42:16.188Z,983.94
2022-10-28T05:43:16.171Z,983.93
2022-10-28T05:44:16.163Z,983.92
2022-10-28T05:45:16.192Z,983.91
2022-10-28T05:46:16.133Z,983.90
2022-10-28T05:47:16.140Z,983.93
2022-10-28T05:48:16.105Z,983.96
2022-10-28T05:49:16.088Z,983.86
2022-10-28T05:50:16.073Z,983.90
2022-10-28T05:51:16.067Z,983.89
2022-10-28T05:52:16.054Z,983.89
2022-10-28T05:53:16.037Z,983.88
2022-10-28T05:54:16.025Z,983.90
2022-10-28T05:55:16.013Z,983.88
2022-10-28T05:56:15.997Z,983.89
2022-10-28T05:57:15.986Z,983.93
2022-10-28T05:58:15.969Z,983.88
2022-10-28T05:59:15.960Z,983.88
2022-10-28T06:00:15.938Z,983.87
2022-10-28T06:01:16.009Z,983.85
2022-10-28T06:02:15.914Z,983.83
2022-10-28T06:03:15.925Z,983.84
2022-10-28T06:04:15.951Z,983.85
2022-10-28T06:05:15.876Z,983.95
2022-10-28T06:06:15.956Z,983.98
2022-10-28T06:07:15.851Z,983.90
2022-10-28T06:08:15.833Z,983.95
2022-10-28T06:09:15.820Z,983.91
2022-10-28T06:10:15.813Z,983.88
2022-10-28T06:11:14.271Z,983.83
2022-10-28T06:12:14.249Z,983.85
2022-10-28T06:13:14.237Z,983.83
2022-10-28T06:14:14.218Z,983.86
2022-10-28T06:15:14.206Z,983.92
2022-10-28T06:16:14.192Z,983.94
2022-10-28T06:17:14.181Z,983.93
2022-10-28T06:18:16.723Z,983.92
2022-10-28T06:19:14.191Z,983.88
2022-10-28T06:20:14.152Z,983.88
2022-10-28T06:21:14.138Z,983.87
2022-10-28T06:22:14.122Z,983.90
2022-10-28T06:23:14.114Z,983.90
2022-10-28T06:24:14.098Z,983.89
2022-10-28T06:25:14.085Z,983.91
2022-10-28T06:26:14.071Z,983.87
2022-10-28T06:27:14.068Z,983.94
2022-10-28T06:28:14.049Z,983.87
2022-10-28T06:29:14.034Z,983.82
2022-10-28T06:30:14.017Z,983.89
2022-10-28T06:31:14.009Z,983.91
2022-10-28T06:32:13.990Z,983.85
2022-10-28T06:33:13.984Z,983.84
2022-10-28T06:34:13.971Z,983.87
2022-10-28T06:35:13.979Z,983.89
2022-10-28T06:36:13.954Z,983.99
2022-10-28T06:37:13.937Z,983.85
2022-10-28T06:38:13.925Z,983.91
2022-10-28T06:39:13.970Z,983.93
2022-10-28T06:40:13.900Z,983.97
2022-10-28T06:41:13.890Z,983.95
2022-10-28T06:42:13.871Z,983.94
2022-10-28T06:43:13.855Z,983.89
2022-10-28T06:44:13.892Z,983.96
2022-10-28T06:45:13.835Z,983.96
2022-10-28T06:46:13.819Z,983.97
2022-10-28T06:47:15.321Z,983.93
2022-10-28T06:48:15.310Z,983.93
2022-10-28T06:49:15.303Z,983.95
2022-10-28T06:50:15.283Z,983.99
2022-10-28T06:51:15.290Z,983.96
2022-10-28T06:52:15.253Z,983.86
2022-10-28T06:53:15.245Z,983.91
2022-10-28T06:54:15.235Z,983.87
2022-10-28T06:55:15.224Z,983.92
2022-10-28T06:56:15.204Z,983.89
2022-10-28T06:57:15.200Z,983.82
2022-10-28T06:58:15.176Z,983.79
2022-10-28T06:59:15.167Z,983.81
2022-10-28T07:00:15.241Z,983.78
2022-10-28T07:01:15.240Z,983.86
2022-10-28T07:02:15.247Z,983.82
2022-10-28T07:03:15.129Z,983.80
2022-10-28T07:04:15.114Z,983.81
2022-10-28T07:05:15.100Z,983.70
2022-10-28T07:07:15.142Z,983.79
2022-10-28T07:08:15.050Z,983.92
2022-10-28T07:09:15.056Z,984.01
2022-10-28T07:10:15.032Z,984.02
2022-10-28T07:11:15.025Z,983.94
2022-10-28T07:12:15.019Z,983.88
2022-10-28T07:13:14.996Z,983.93
2022-10-28T07:14:14.976Z,983.93
2022-10-28T07:15:14.966Z,983.90
2022-10-28T07:16:14.949Z,984.03
2022-10-28T07:17:14.947Z,984.10
2022-10-28T07:18:14.928Z,984.11
2022-10-28T07:19:17.886Z,984.08
2022-10-28T07:20:14.906Z,984.07
2022-10-28T07:21:14.894Z,984.07
2022-10-28T07:22:14.875Z,984.03
2022-10-28T07:23:14.885Z,984.03
2022-10-28T07:24:14.886Z,984.00
2022-10-28T07:25:14.846Z,984.03
2022-10-28T07:26:14.828Z,984.00
2022-10-28T07:27:14.817Z,984.08
2022-10-28T07:28:14.802Z,983.99
2022-10-28T07:29:14.797Z,984.09
2022-10-28T07:30:14.771Z,984.04
2022-10-28T07:31:14.769Z,984.12
2022-10-28T07:32:14.752Z,984.03
2022-10-28T07:33:14.743Z,984.05
2022-10-28T07:34:14.728Z,984.07
2022-10-28T07:35:14.723Z,984.06
2022-10-28T07:36:14.707Z,984.12
2022-10-28T07:37:14.703Z,984.07
2022-10-28T07:38:14.673Z,984.04
2022-10-28T07:39:14.684Z,984.04
2022-10-28T07:40:14.646Z,983.99
2022-10-28T07:41:14.642Z,984.00
2022-10-28T07:42:14.624Z,984.00
2022-10-28T07:43:14.615Z,984.02
2022-10-28T07:44:14.598Z,983.95
2022-10-28T07:45:14.586Z,983.93
2022-10-28T07:46:14.570Z,983.99
2022-10-28T07:47:14.559Z,983.93
2022-10-28T07:48:14.540Z,984.01
2022-10-28T07:49:14.532Z,984.08
2022-10-28T07:50:14.527Z,984.12
2022-10-28T07:51:14.522Z,984.10
2022-10-28T07:52:14.512Z,984.05
2022-10-28T07:54:14.458Z,984.02
2022-10-28T07:55:14.467Z,984.10
2022-10-28T07:56:14.428Z,984.18
2022-10-28T07:57:14.421Z,984.21
2022-10-28T07:58:14.398Z,984.16
2022-10-28T07:59:14.389Z,984.17
2022-10-28T08:00:14.372Z,984.22
2022-10-28T08:01:14.514Z,984.27
2022-10-28T08:02:14.420Z,984.20
2022-10-28T08:03:14.335Z,984.21
2022-10-28T08:04:14.318Z,984.20
2022-10-28T08:05:14.307Z,984.17
2022-10-28T08:06:14.284Z,984.13
2022-10-28T08:07:14.277Z,984.24
2022-10-28T08:08:14.261Z,984.16
2022-10-28T08:09:14.246Z,984.09
2022-10-28T08:10:14.235Z,984.09
2022-10-28T08:11:14.231Z,984.07
2022-10-28T08:12:14.189Z,984.11
2022-10-28T08:13:14.171Z,984.14
2022-10-28T08:14:14.159Z,984.09
2022-10-28T08:15:14.152Z,984.12
2022-10-28T08:16:14.125Z,984.10
2022-10-28T08:17:14.119Z,984.06
2022-10-28T08:18:14.102Z,984.10
2022-10-28T08:19:14.087Z,984.15
2022-10-28T08:20:14.072Z,984.12
2022-10-28T08:21:14.062Z,984.13
2022-10-28T08:22:14.040Z,984.15
2022-10-28T08:23:14.035Z,984.16
2022-10-28T08:24:14.012Z,984.14
2022-10-28T08:25:14.009Z,984.12
2022-10-28T08:26:13.983Z,984.13
2022-10-28T08:27:14.001Z,984.13
2022-10-28T08:28:13.954Z,984.12
2022-10-28T08:29:13.950Z,984.16
2022-10-28T08:30:13.930Z,984.15
2022-10-28T08:31:13.921Z,984.16
2022-10-28T08:32:14.012Z,984.19
2022-10-28T08:33:13.991Z,984.16
2022-10-28T08:34:13.936Z,984.25
2022-10-28T08:35:13.870Z,984.19
2022-10-28T08:36:13.857Z,984.19
2022-10-28T08:37:13.878Z,984.17
2022-10-28T08:38:13.824Z,984.15
2022-10-28T08:39:13.809Z,984.05
2022-10-28T08:40:13.789Z,984.07
2022-10-28T08:41:13.778Z,984.12
2022-10-28T08:42:13.776Z,984.08
2022-10-28T08:43:13.795Z,983.98
2022-10-28T08:44:13.748Z,984.03
2022-10-28T08:45:15.780Z,983.98
2022-10-28T08:46:13.722Z,984.01
2022-10-28T08:47:13.724Z,984.02
2022-10-28T08:48:13.695Z,984.04
2022-10-28T08:49:13.688Z,983.94
2022-10-28T08:50:13.658Z,984.00
2022-10-28T08:51:13.649Z,983.98
2022-10-28T08:52:13.638Z,983.99
2022-10-28T08:53:13.626Z,983.96
2022-10-28T08:54:13.613Z,983.88
2022-10-28T08:55:13.605Z,983.89
2022-10-28T08:56:13.580Z,983.88
2022-10-28T08:57:17.890Z,983.94
2022-10-28T08:58:13.565Z,983.96
2022-10-28T08:59:13.572Z,983.88
2022-10-28T09:00:13.533Z,983.85
2022-10-28T09:01:13.763Z,983.87
2022-10-28T09:02:13.500Z,983.82
2022-10-28T09:03:13.505Z,983.87
2022-10-28T09:04:13.479Z,983.82
2022-10-28T09:05:13.474Z,983.81
2022-10-28T09:06:13.449Z,983.78
2022-10-28T09:07:13.440Z,983.78
2022-10-28T09:08:13.421Z,983.88
2022-10-28T09:09:13.418Z,983.85
2022-10-28T09:10:13.398Z,983.79
2022-10-28T09:11:13.388Z,983.83
2022-10-28T09:12:13.373Z,983.88
2022-10-28T09:13:13.363Z,983.84
2022-10-28T09:14:13.343Z,983.90
2022-10-28T09:15:13.356Z,983.95
2022-10-28T09:16:15.286Z,983.98
2022-10-28T09:17:13.311Z,983.99
2022-10-28T09:18:13.291Z,983.99
2022-10-28T09:19:13.284Z,983.96
2022-10-28T09:20:13.264Z,983.98
2022-10-28T09:21:13.260Z,984.06
2022-10-28T09:22:15.283Z,984.06
2022-10-28T09:23:13.232Z,984.09
2022-10-28T09:24:13.215Z,984.08
2022-10-28T09:25:13.208Z,984.01
2022-10-28T09:26:13.194Z,983.99
2022-10-28T09:27:13.178Z,984.01
2022-10-28T09:28:13.165Z,984.05
2022-10-28T09:29:13.152Z,983.97
2022-10-28T09:30:13.133Z,984.00
2022-10-28T09:31:13.146Z,984.07
2022-10-28T09:32:13.102Z,984.18
2022-10-28T09:33:13.193Z,984.08
2022-10-28T09:34:13.088Z,983.97
2022-10-28T09:35:13.071Z,983.99
2022-10-28T09:36:13.052Z,983.95
2022-10-28T09:37:13.040Z,984.14
2022-10-28T09:38:13.033Z,984.21
2022-10-28T09:39:13.019Z,984.21
2022-10-28T09:40:12.994Z,984.12
2022-10-28T09:41:12.986Z,983.97
2022-10-28T09:42:12.973Z,983.92
2022-10-28T09:43:12.958Z,983.93
2022-10-28T09:44:12.944Z,983.94
2022-10-28T09:45:12.930Z,983.97
2022-10-28T09:46:12.915Z,984.07
2022-10-28T09:47:12.928Z,984.06
2022-10-28T09:48:12.891Z,984.01
2022-10-28T09:49:12.879Z,984.00
2022-10-28T09:50:12.865Z,983.96
2022-10-28T09:51:12.855Z,983.98
2022-10-28T09:52:15.350Z,983.98
2022-10-28T09:53:12.833Z,983.94
2022-10-28T09:54:12.865Z,983.97
2022-10-28T09:55:12.799Z,983.93
2022-10-28T09:56:12.784Z,983.88
2022-10-28T09:57:15.042Z,983.83
2022-10-28T09:58:12.751Z,983.87
2022-10-28T09:59:12.743Z,983.86
2022-10-28T10:00:12.729Z,983.86
2022-10-28T10:01:12.769Z,983.85
2022-10-28T10:02:12.823Z,983.82
2022-10-28T10:03:12.729Z,983.88
2022-10-28T10:04:12.677Z,983.76
2022-10-28T10:05:16.826Z,983.75
2022-10-28T10:06:12.653Z,983.71
2022-10-28T10:07:12.639Z,983.74
2022-10-28T10:08:12.629Z,983.72
2022-10-28T10:09:12.612Z,983.78
2022-10-28T10:10:12.598Z,983.77
2022-10-28T10:11:12.585Z,983.83
2022-10-28T10:12:12.576Z,983.79
2022-10-28T10:13:12.554Z,983.85
2022-10-28T10:14:12.558Z,983.76
2022-10-28T10:15:12.529Z,983.71
2022-10-28T10:16:12.518Z,983.79
2022-10-28T10:17:12.500Z,983.76
2022-10-28T10:18:12.502Z,983.77
2022-10-28T10:19:12.513Z,983.79
2022-10-28T10:20:12.470Z,983.81
2022-10-28T10:21:12.455Z,983.80
2022-10-28T10:22:12.446Z,983.79
2022-10-28T10:23:12.429Z,983.82
2022-10-28T10:24:12.424Z,983.76
2022-10-28T10:25:12.402Z,983.75
2022-10-28T10:26:12.681Z,983.78
2022-10-28T10:27:12.375Z,983.78
2022-10-28T10:28:12.361Z,983.88
2022-10-28T10:29:12.347Z,983.75
2022-10-28T10:30:12.332Z,983.60
2022-10-28T10:31:12.334Z,983.54
2022-10-28T10:32:12.308Z,983.56
2022-10-28T10:33:12.299Z,983.57
2022-10-28T10:34:12.285Z,983.55
2022-10-28T10:35:12.291Z,983.56
2022-10-28T10:36:12.259Z,983.53
2022-10-28T10:37:12.249Z,983.49
2022-10-28T10:38:12.230Z,983.52
2022-10-28T10:39:12.211Z,983.49
2022-10-28T10:40:12.202Z,983.57
2022-10-28T10:41:12.186Z,983.66
2022-10-28T10:42:12.181Z,983.57
2022-10-28T10:43:14.125Z,983.62
2022-10-28T10:44:12.164Z,983.64
2022-10-28T10:45:12.145Z,983.63
2022-10-28T10:46:12.150Z,983.65
2022-10-28T10:47:12.115Z,983.72
2022-10-28T10:48:12.108Z,983.70
2022-10-28T10:49:12.084Z,983.68
2022-10-28T10:50:12.134Z,983.68
2022-10-28T10:51:12.078Z,983.69
2022-10-28T10:52:12.050Z,983.67
2022-10-28T10:53:12.028Z,983.61
2022-10-28T10:54:12.024Z,983.59
2022-10-28T10:55:12.003Z,983.63
2022-10-28T10:56:11.995Z,983.68
2022-10-28T10:57:11.975Z,983.72
2022-10-28T10:58:11.970Z,983.67
2022-10-28T10:59:11.957Z,983.68
2022-10-28T11:00:12.178Z,983.60
2022-10-28T11:01:12.001Z,983.65
2022-10-28T11:02:12.093Z,983.61
2022-10-28T11:03:11.899Z,983.59
2022-10-28T11:04:11.890Z,983.52
2022-10-28T11:05:11.868Z,983.60
2022-10-28T11:06:23.195Z,983.52
2022-10-28T11:07:12.906Z,983.54
2022-10-28T11:08:11.845Z,983.39
2022-10-28T11:09:11.823Z,983.42
2022-10-28T11:10:11.812Z,983.49
2022-10-28T11:11:11.796Z,983.39
2022-10-28T11:12:11.795Z,983.43
2022-10-28T11:13:11.769Z,983.33
2022-10-28T11:14:11.753Z,983.28
2022-10-28T11:15:11.739Z,983.26
2022-10-28T11:16:11.729Z,983.30
2022-10-28T11:17:11.715Z,983.20
2022-10-28T11:18:11.704Z,983.34
2022-10-28T11:19:11.689Z,983.28
2022-10-28T11:20:11.674Z,983.23
2022-10-28T11:21:11.680Z,983.25
2022-10-28T11:22:11.663Z,983.25
2022-10-28T11:23:11.659Z,983.23
2022-10-28T11:24:11.634Z,983.19
2022-10-28T11:25:11.611Z,983.23
2022-10-28T11:26:11.602Z,983.27
2022-10-28T11:27:11.586Z,983.28
2022-10-28T11:28:11.580Z,983.31
2022-10-28T11:29:11.558Z,983.38
2022-10-28T11:30:11.549Z,983.33
2022-10-28T11:31:11.536Z,983.42
2022-10-28T11:32:11.520Z,983.44
2022-10-28T11:33:31.028Z,983.40
2022-10-28T11:34:12.518Z,983.39
2022-10-28T11:35:11.476Z,983.43
2022-10-28T11:36:11.468Z,983.46
2022-10-28T11:37:11.451Z,983.42
2022-10-28T11:38:11.447Z,983.37
2022-10-28T11:39:11.452Z,983.43
2022-10-28T11:40:11.425Z,983.42
2022-10-28T11:41:11.408Z,983.43
2022-10-28T11:42:11.393Z,983.37
2022-10-28T11:43:11.381Z,983.32
2022-10-28T11:44:11.367Z,983.38
2022-10-28T11:45:11.349Z,983.24
2022-10-28T11:46:11.344Z,983.25
2022-10-28T11:47:11.339Z,983.25
2022-10-28T11:48:11.347Z,983.25
2022-10-28T11:49:11.301Z,983.21
2022-10-28T11:50:11.291Z,983.16
2022-10-28T11:51:11.275Z,983.20
2022-10-28T11:52:11.266Z,983.14
2022-10-28T11:53:11.463Z,983.01
2022-10-28T11:54:11.253Z,983.15
2022-10-28T11:55:11.289Z,983.13
2022-10-28T11:56:11.207Z,983.05
2022-10-28T11:57:11.190Z,982.95
2022-10-28T11:58:11.195Z,983.00
2022-10-28T11:59:11.166Z,982.92
2022-10-28T12:00:11.158Z,982.83
2022-10-28T12:01:11.226Z,982.87
2022-10-28T12:02:11.293Z,982.85
2022-10-28T12:03:11.166Z,982.87
2022-10-28T12:04:11.106Z,982.86
2022-10-28T12:05:11.093Z,982.89
2022-10-28T12:06:11.083Z,982.79
2022-10-28T12:07:11.067Z,982.87
2022-10-28T12:08:11.054Z,982.85
2022-10-28T12:09:11.039Z,982.83
2022-10-28T12:10:11.022Z,982.83
2022-10-28T12:11:11.032Z,982.86
2022-10-28T12:12:11.007Z,982.81
2022-10-28T12:13:10.979Z,982.78
2022-10-28T12:14:10.980Z,982.77
2022-10-28T12:15:10.960Z,982.78
2022-10-28T12:16:10.954Z,982.71
2022-10-28T12:17:10.938Z,982.69
2022-10-28T12:18:10.922Z,982.65
2022-10-28T12:19:10.908Z,982.59
2022-10-28T12:20:10.957Z,982.66
2022-10-28T12:21:11.005Z,982.59
2022-10-28T12:22:10.873Z,982.57
2022-10-28T12:23:10.850Z,982.52
2022-10-28T12:24:10.842Z,982.54
2022-10-28T12:25:10.888Z,982.47
2022-10-28T12:26:10.813Z,982.52
2022-10-28T12:27:15.287Z,982.55
2022-10-28T12:28:11.890Z,982.45
2022-10-28T12:29:10.773Z,982.40
2022-10-28T12:30:10.763Z,982.32
2022-10-28T12:31:10.752Z,982.36